Time;durP1;ratioP1;P1;durP2;ratioP2;P2;SDS_P1;SDS_P2;PMS_P1;PMS_P2;Temp;Humidity;BMP_temperature;BMP_pressure;BME280_temperature;BME280_humidity;BME280_pressure;Samples;Min_cycle;Max_cycle;Signal;HPM_P1;HPM_P2
2024/04/09 00:01:12;;;;;;;;;;;17.40;71.50;;;;;;5438940;26;19935;-63
2024/04/09 00:03:44;;;;;;;;;;;17.40;71.50;;;;;;5433713;26;19930;-62
2024/04/09 00:06:19;;;;;;;;;;;17.40;71.40;;;;;;5434210;26;19944;-62
2024/04/09 00:08:53;;;;;;;;;;;17.30;71.50;;;;;;5438878;26;19939;-63
2024/04/09 00:11:30;;;;;;;;;;;17.40;71.50;;;;;;5433255;26;20280;-62
2024/04/09 00:14:04;;;;;;;;;;;17.30;71.50;;;;;;5432926;26;19928;-62
2024/04/09 00:16:41;;;;;;;;;;;17.30;71.80;;;;;;5436691;26;19997;-62
2024/04/09 00:19:23;;;;;;;;;;;17.40;71.90;;;;;;5439664;26;19936;-60
2024/04/09 00:21:59;;;;;;;;;;;17.40;72.00;;;;;;5433721;26;19940;-62
2024/04/09 00:24:32;;;;;;;;;;;17.30;72.30;;;;;;5433360;26;20533;-62
2024/04/09 00:27:09;;;;;;;;;;;17.30;72.40;;;;;;5432860;26;19936;-60
2024/04/09 00:29:43;;;;;;;;;;;17.30;72.50;;;;;;5442438;26;19928;-62
2024/04/09 00:32:18;;;;;;;;;;;17.20;72.50;;;;;;5435298;26;19943;-62
2024/04/09 00:34:50;;;;;;;;;;;17.20;72.70;;;;;;5443632;26;19940;-64
2024/04/09 00:37:26;;;;;;;;;;;17.20;72.50;;;;;;5437638;26;19928;-62
2024/04/09 00:39:58;;;;;;;;;;;17.20;72.50;;;;;;5436924;26;19940;-62
2024/04/09 00:42:36;;;;;;;;;;;17.20;72.60;;;;;;5433655;26;19997;-61
2024/04/09 00:45:09;;;;;;;;;;;17.20;72.50;;;;;;5432901;26;19943;-62
2024/04/09 00:47:46;;;;;;;;;;;17.20;72.40;;;;;;5439596;26;19936;-61
2024/04/09 00:50:19;;;;;;;;;;;17.20;72.70;;;;;;5434285;26;20271;-70
2024/04/09 00:52:56;;;;;;;;;;;17.20;72.60;;;;;;5432592;26;20973;-72
2024/04/09 00:55:32;;;;;;;;;;;17.20;72.80;;;;;;5434490;26;19980;-72
2024/04/09 00:58:11;;;;;;;;;;;17.20;73.00;;;;;;5436250;26;19936;-73
2024/04/09 01:00:44;;;;;;;;;;;17.10;73.00;;;;;;5423469;26;19936;-73
2024/04/09 01:03:20;;;;;;;;;;;17.20;73.10;;;;;;5432099;26;19928;-72
2024/04/09 01:05:59;;;;;;;;;;;17.10;73.30;;;;;;5434087;26;19940;-73
2024/04/09 01:08:34;;;;;;;;;;;17.10;73.30;;;;;;5437785;26;20371;-72
2024/04/09 01:11:07;;;;;;;;;;;17.10;73.30;;;;;;5433042;26;19937;-72
2024/04/09 01:13:44;;;;;;;;;;;17.10;73.40;;;;;;5438322;26;19937;-72
2024/04/09 01:16:18;;;;;;;;;;;17.10;73.30;;;;;;5434546;26;19936;-72
2024/04/09 01:18:53;;;;;;;;;;;17.10;73.50;;;;;;5436879;26;19936;-71
2024/04/09 01:21:26;;;;;;;;;;;17.00;73.60;;;;;;5438174;26;20263;-73
2024/04/09 01:24:05;;;;;;;;;;;17.00;73.60;;;;;;5432847;26;19940;-72
2024/04/09 01:26:37;;;;;;;;;;;16.90;73.70;;;;;;5441595;26;19936;-73
2024/04/09 01:29:14;;;;;;;;;;;16.90;73.80;;;;;;5434306;26;19944;-73
2024/04/09 01:31:46;;;;;;;;;;;16.90;73.70;;;;;;5435109;26;19928;-73
2024/04/09 01:34:22;;;;;;;;;;;16.90;73.60;;;;;;5429094;26;20260;-73
2024/04/09 01:36:55;;;;;;;;;;;16.90;73.60;;;;;;5438485;26;19997;-72
2024/04/09 01:39:35;;;;;;;;;;;16.80;73.80;;;;;;5439038;26;19936;-72
2024/04/09 01:42:08;;;;;;;;;;;16.80;73.90;;;;;;5437328;26;19928;-72
2024/04/09 01:44:44;;;;;;;;;;;16.80;74.00;;;;;;5427774;26;20394;-72
2024/04/09 01:47:17;;;;;;;;;;;16.70;74.10;;;;;;5436380;26;20371;-73
2024/04/09 01:49:52;;;;;;;;;;;16.70;74.20;;;;;;5441139;26;19935;-73
2024/04/09 01:52:25;;;;;;;;;;;16.60;74.20;;;;;;5434889;26;19928;-73
2024/04/09 01:55:05;;;;;;;;;;;16.60;74.50;;;;;;5442081;26;19935;-72
2024/04/09 01:57:37;;;;;;;;;;;16.60;74.30;;;;;;5435137;26;20371;-73
2024/04/09 02:00:19;;;;;;;;;;;16.70;74.10;;;;;;5434042;26;19936;-72
2024/04/09 02:02:52;;;;;;;;;;;16.70;74.00;;;;;;5429553;26;19956;-62
2024/04/09 02:05:38;;;;;;;;;;;16.70;73.80;;;;;;5438579;26;19928;-61
2024/04/09 02:08:10;;;;;;;;;;;16.70;73.50;;;;;;5429247;26;19982;-62
2024/04/09 02:10:50;;;;;;;;;;;16.70;73.40;;;;;;5443245;26;19952;-63
2024/04/09 02:13:25;;;;;;;;;;;16.70;73.30;;;;;;5436053;26;19936;-60
2024/04/09 02:16:01;;;;;;;;;;;16.70;73.20;;;;;;5434030;26;19976;-62
2024/04/09 02:18:35;;;;;;;;;;;16.70;73.10;;;;;;5443582;26;19929;-62
2024/04/09 02:21:11;;;;;;;;;;;16.70;73.10;;;;;;5442097;26;19956;-62
2024/04/09 02:23:44;;;;;;;;;;;16.60;73.30;;;;;;5439696;26;20387;-62
2024/04/09 02:26:23;;;;;;;;;;;16.60;73.60;;;;;;5438438;26;19943;-62
2024/04/09 02:28:57;;;;;;;;;;;16.60;73.90;;;;;;5441161;26;19936;-62
2024/04/09 02:31:32;;;;;;;;;;;16.60;74.10;;;;;;5434441;26;19936;-63
2024/04/09 02:34:05;;;;;;;;;;;16.60;74.20;;;;;;5437921;26;19997;-61
2024/04/09 02:36:40;;;;;;;;;;;16.60;74.40;;;;;;5425172;26;19938;-61
2024/04/09 02:39:14;;;;;;;;;;;16.50;74.60;;;;;;5403552;26;19944;-62
2024/04/09 02:41:45;;;;;;;;;;;16.50;74.80;;;;;;5401047;26;19936;-62
2024/04/09 02:44:17;;;;;;;;;;;16.40;74.80;;;;;;5402983;26;19929;-62
2024/04/09 02:46:59;;;;;;;;;;;16.40;74.90;;;;;;5409071;26;19936;-62
2024/04/09 02:49:32;;;;;;;;;;;16.30;75.20;;;;;;5402917;26;19929;-62
2024/04/09 02:52:08;;;;;;;;;;;16.30;75.40;;;;;;5407606;26;20369;-62
2024/04/09 02:54:40;;;;;;;;;;;16.30;75.60;;;;;;5402350;26;19929;-62
2024/04/09 02:57:18;;;;;;;;;;;16.20;75.70;;;;;;5407335;26;19929;-62
2024/04/09 02:59:51;;;;;;;;;;;16.20;75.90;;;;;;5396974;26;19930;-62
2024/04/09 03:02:27;;;;;;;;;;;16.20;76.00;;;;;;5400922;26;19936;-62
2024/04/09 03:05:06;;;;;;;;;;;16.20;76.10;;;;;;5400431;26;19941;-62
2024/04/09 03:07:41;;;;;;;;;;;16.20;76.20;;;;;;5397962;26;19962;-62
2024/04/09 03:10:13;;;;;;;;;;;16.20;76.20;;;;;;5399806;26;19937;-62
2024/04/09 03:12:51;;;;;;;;;;;16.20;76.10;;;;;;5406813;26;19942;-71
2024/04/09 03:15:24;;;;;;;;;;;16.20;76.30;;;;;;5399898;26;19961;-72
2024/04/09 03:18:00;;;;;;;;;;;16.20;76.40;;;;;;5395052;26;20306;-73
2024/04/09 03:20:40;;;;;;;;;;;16.20;76.50;;;;;;5394010;26;19940;-73
2024/04/09 03:23:15;;;;;;;;;;;16.10;76.60;;;;;;5419908;26;19929;-72
2024/04/09 03:25:47;;;;;;;;;;;16.20;76.60;;;;;;5423459;26;22734;-70
2024/04/09 03:28:26;;;;;;;;;;;16.20;76.70;;;;;;5411286;26;20784;-72
2024/04/09 03:30:59;;;;;;;;;;;16.20;76.70;;;;;;5396172;26;19937;-72
2024/04/09 03:33:34;;;;;;;;;;;16.20;76.70;;;;;;5441614;26;19938;-71
2024/04/09 03:36:07;;;;;;;;;;;16.10;76.80;;;;;;5442100;26;20023;-71
2024/04/09 03:38:43;;;;;;;;;;;16.10;76.90;;;;;;5404063;26;19957;-71
2024/04/09 03:41:18;;;;;;;;;;;16.10;77.10;;;;;;5398844;26;19936;-72
2024/04/09 03:43:55;;;;;;;;;;;16.10;77.10;;;;;;5400873;26;19938;-71
2024/04/09 03:46:28;;;;;;;;;;;16.10;77.30;;;;;;5405161;26;20375;-70
2024/04/09 03:49:05;;;;;;;;;;;16.10;77.30;;;;;;5399826;26;20384;-72
2024/04/09 03:51:31;;;;;;;;;;;16.00;77.40;;;;;;5400396;26;19940;-72
2024/04/09 03:54:12;;;;;;;;;;;16.00;77.40;;;;;;5435782;26;19935;-72
2024/04/09 03:56:45;;;;;;;;;;;16.00;77.30;;;;;;5419504;26;19928;-71
2024/04/09 03:59:24;;;;;;;;;;;15.90;77.50;;;;;;5444239;26;19944;-72
2024/04/09 04:01:56;;;;;;;;;;;15.90;77.50;;;;;;5430697;26;19936;-72
2024/04/09 04:04:38;;;;;;;;;;;15.90;77.60;;;;;;5433124;26;19997;-72
2024/04/09 04:07:15;;;;;;;;;;;15.90;77.60;;;;;;5435589;26;19929;-70
2024/04/09 04:09:51;;;;;;;;;;;15.80;77.80;;;;;;5407577;26;20374;-72
2024/04/09 04:12:23;;;;;;;;;;;15.80;77.80;;;;;;5409290;26;19929;-72
2024/04/09 04:15:02;;;;;;;;;;;15.80;77.80;;;;;;5417865;26;19936;-71
2024/04/09 04:17:41;;;;;;;;;;;15.70;78.00;;;;;;5439840;26;19935;-71
2024/04/09 04:20:16;;;;;;;;;;;15.70;78.00;;;;;;5445092;26;19933;-72
2024/04/09 04:22:49;;;;;;;;;;;15.70;78.10;;;;;;5441192;26;19935;-65
2024/04/09 04:25:24;;;;;;;;;;;15.60;78.30;;;;;;5435930;26;19928;-65
2024/04/09 04:27:56;;;;;;;;;;;15.60;78.40;;;;;;5442604;26;19936;-65
2024/04/09 04:30:33;;;;;;;;;;;15.60;78.40;;;;;;5431137;26;19949;-65
2024/04/09 04:33:06;;;;;;;;;;;15.60;78.40;;;;;;5431314;26;20557;-66
2024/04/09 04:35:42;;;;;;;;;;;15.60;78.50;;;;;;5434790;26;19928;-65
2024/04/09 04:38:08;;;;;;;;;;;15.60;78.60;;;;;;5440147;26;19944;-67
2024/04/09 04:40:50;;;;;;;;;;;15.50;78.70;;;;;;5439250;26;19997;-66
2024/04/09 04:43:23;;;;;;;;;;;15.50;78.90;;;;;;5434877;26;19928;-65
2024/04/09 04:46:04;;;;;;;;;;;15.40;79.00;;;;;;5439287;26;19929;-64
2024/04/09 04:48:37;;;;;;;;;;;15.40;79.20;;;;;;5435384;26;20964;-64
2024/04/09 04:51:12;;;;;;;;;;;15.50;79.20;;;;;;5444577;26;19951;-66
2024/04/09 04:53:44;;;;;;;;;;;15.50;79.20;;;;;;5440701;26;19935;-64
2024/04/09 04:56:20;;;;;;;;;;;15.50;79.30;;;;;;5433069;26;20267;-64
2024/04/09 04:58:52;;;;;;;;;;;15.50;79.30;;;;;;5442659;26;19935;-65
2024/04/09 05:01:31;;;;;;;;;;;15.50;79.30;;;;;;5440774;26;19936;-65
2024/04/09 05:04:03;;;;;;;;;;;15.60;79.20;;;;;;5437934;26;19935;-65
2024/04/09 05:06:39;;;;;;;;;;;15.50;79.10;;;;;;5436455;26;19944;-64
2024/04/09 05:09:11;;;;;;;;;;;15.60;79.10;;;;;;5440468;26;19997;-65
2024/04/09 05:11:48;;;;;;;;;;;15.60;79.10;;;;;;5439872;26;20080;-65
2024/04/09 05:14:21;;;;;;;;;;;15.60;79.10;;;;;;5438618;26;19936;-65
2024/04/09 05:16:59;;;;;;;;;;;15.60;79.00;;;;;;5437274;26;19939;-65
2024/04/09 05:19:41;;;;;;;;;;;15.60;79.10;;;;;;5440950;26;19945;-65
2024/04/09 05:22:16;;;;;;;;;;;15.60;79.10;;;;;;5439484;26;19929;-65
2024/04/09 05:24:51;;;;;;;;;;;15.60;79.20;;;;;;5444853;26;19935;-65
2024/04/09 05:27:23;;;;;;;;;;;15.70;79.20;;;;;;5444740;26;19937;-65
2024/04/09 05:29:52;;;;;;;;;;;15.70;79.20;;;;;;5438962;26;19929;-65
2024/04/09 05:32:27;;;;;;;;;;;15.60;79.20;;;;;;5432051;26;20252;-62
2024/04/09 05:35:02;;;;;;;;;;;15.70;79.10;;;;;;5438840;26;19998;-61
2024/04/09 05:37:35;;;;;;;;;;;15.70;78.90;;;;;;5440630;26;19929;-62
2024/04/09 05:40:11;;;;;;;;;;;15.70;78.70;;;;;;5428586;26;20625;-63
2024/04/09 05:42:45;;;;;;;;;;;15.80;78.70;;;;;;5440032;26;19933;-63
2024/04/09 05:45:21;;;;;;;;;;;15.80;78.80;;;;;;5442356;26;19933;-63
2024/04/09 05:47:57;;;;;;;;;;;15.90;78.70;;;;;;5446858;26;20443;-62
2024/04/09 05:50:32;;;;;;;;;;;15.90;78.80;;;;;;5433688;26;19943;-62
2024/04/09 05:53:11;;;;;;;;;;;15.90;78.70;;;;;;5437293;26;19929;-63
2024/04/09 05:55:55;;;;;;;;;;;16.00;78.40;;;;;;5441753;26;20370;-63
2024/04/09 05:58:27;;;;;;;;;;;16.00;78.30;;;;;;5439605;26;19929;-62
2024/04/09 06:01:03;;;;;;;;;;;16.10;78.10;;;;;;5444059;26;19944;-62
2024/04/09 06:03:38;;;;;;;;;;;16.20;78.00;;;;;;5437847;26;19935;-62
2024/04/09 06:06:13;;;;;;;;;;;16.30;77.40;;;;;;5438616;26;19964;-62
2024/04/09 06:08:53;;;;;;;;;;;16.40;77.00;;;;;;5444843;26;19929;-61
2024/04/09 06:11:29;;;;;;;;;;;16.40;76.90;;;;;;5441530;26;19932;-61
2024/04/09 06:14:01;;;;;;;;;;;16.50;76.50;;;;;;5442518;26;19928;-62
2024/04/09 06:16:37;;;;;;;;;;;16.60;76.20;;;;;;5440401;26;19928;-62
2024/04/09 06:19:19;;;;;;;;;;;16.60;75.80;;;;;;5439624;26;19936;-63
2024/04/09 06:21:54;;;;;;;;;;;16.70;75.70;;;;;;5442641;26;19936;-62
2024/04/09 06:24:26;;;;;;;;;;;16.80;75.60;;;;;;5432960;26;19932;-62
2024/04/09 06:27:02;;;;;;;;;;;16.90;75.50;;;;;;5447132;26;19935;-62
2024/04/09 06:29:34;;;;;;;;;;;16.90;75.40;;;;;;5444153;26;20373;-63
2024/04/09 06:32:11;;;;;;;;;;;17.10;75.10;;;;;;5440855;26;20372;-62
2024/04/09 06:34:46;;;;;;;;;;;17.10;74.90;;;;;;5437263;26;19928;-62
2024/04/09 06:37:21;;;;;;;;;;;17.20;73.40;;;;;;5438827;26;20416;-63
2024/04/09 06:39:53;;;;;;;;;;;17.30;73.00;;;;;;5443167;26;20006;-62
2024/04/09 06:42:29;;;;;;;;;;;17.50;72.70;;;;;;5442469;26;19936;-76
2024/04/09 06:45:03;;;;;;;;;;;17.60;71.90;;;;;;5436705;26;19943;-72
2024/04/09 06:47:38;;;;;;;;;;;17.70;71.60;;;;;;5447248;26;19929;-75
2024/04/09 06:50:15;;;;;;;;;;;17.80;71.20;;;;;;5444668;26;19943;-75
2024/04/09 06:52:50;;;;;;;;;;;18.00;70.80;;;;;;5434452;26;19953;-74
2024/04/09 06:55:23;;;;;;;;;;;18.10;70.80;;;;;;5437942;26;19935;-75
2024/04/09 06:57:59;;;;;;;;;;;18.20;70.70;;;;;;5443767;26;19936;-74
2024/04/09 07:00:33;;;;;;;;;;;18.30;70.70;;;;;;5444831;26;19933;-73
2024/04/09 07:03:08;;;;;;;;;;;18.40;70.10;;;;;;5442423;26;19928;-74
2024/04/09 07:05:43;;;;;;;;;;;18.40;69.20;;;;;;5438652;26;19932;-75
2024/04/09 07:08:25;;;;;;;;;;;18.50;67.70;;;;;;5439179;26;19997;-74
2024/04/09 07:10:57;;;;;;;;;;;18.60;67.00;;;;;;5447445;26;19928;-76
2024/04/09 07:13:33;;;;;;;;;;;18.70;66.70;;;;;;5440110;26;20001;-75
2024/04/09 07:16:07;;;;;;;;;;;18.70;66.70;;;;;;5442779;26;19928;-74
2024/04/09 07:18:42;;;;;;;;;;;18.70;66.20;;;;;;5438035;26;19936;-73
2024/04/09 07:21:17;;;;;;;;;;;18.80;65.70;;;;;;5443833;26;19928;-76
2024/04/09 07:23:53;;;;;;;;;;;18.90;65.60;;;;;;5443914;26;19935;-73
2024/04/09 07:26:25;;;;;;;;;;;18.90;65.00;;;;;;5444652;26;19940;-75
2024/04/09 07:29:01;;;;;;;;;;;19.00;65.10;;;;;;5439021;26;19953;-73
2024/04/09 07:31:27;;;;;;;;;;;19.10;64.70;;;;;;5441628;26;20276;-73
2024/04/09 07:34:02;;;;;;;;;;;19.20;64.60;;;;;;5444025;26;19941;-75
2024/04/09 07:36:37;;;;;;;;;;;19.40;64.30;;;;;;5434782;26;19944;-75
2024/04/09 07:39:14;;;;;;;;;;;19.50;64.40;;;;;;5440031;26;19956;-74
2024/04/09 07:41:47;;;;;;;;;;;19.60;64.10;;;;;;5444077;26;19936;-74
2024/04/09 07:44:23;;;;;;;;;;;19.60;63.80;;;;;;5440948;26;19994;-75
2024/04/09 07:46:55;;;;;;;;;;;19.80;63.70;;;;;;5443661;26;20363;-74
2024/04/09 07:49:31;;;;;;;;;;;19.90;63.50;;;;;;5445807;26;20408;-74
2024/04/09 07:52:14;;;;;;;;;;;20.00;63.40;;;;;;5439448;26;19932;-74
2024/04/09 07:54:49;;;;;;;;;;;20.10;63.00;;;;;;5444070;26;19929;-74
2024/04/09 07:57:21;;;;;;;;;;;20.20;62.50;;;;;;5441703;26;19935;-72
2024/04/09 08:00:13;;;;;;;;;;;20.30;62.40;;;;;;5442050;26;19957;-72
2024/04/09 08:02:45;;;;;;;;;;;20.40;62.40;;;;;;5407058;26;19940;-75
2024/04/09 08:05:22;;;;;;;;;;;20.60;61.80;;;;;;5405281;26;19937;-75
2024/04/09 08:07:58;;;;;;;;;;;20.60;61.40;;;;;;5400421;26;19929;-74
2024/04/09 08:10:34;;;;;;;;;;;20.70;61.00;;;;;;5401846;26;19953;-74
2024/04/09 08:13:06;;;;;;;;;;;20.80;61.10;;;;;;5404087;26;19944;-75
2024/04/09 08:15:42;;;;;;;;;;;20.80;60.90;;;;;;5403764;26;19940;-74
2024/04/09 08:18:15;;;;;;;;;;;20.90;61.00;;;;;;5399485;26;19997;-73
2024/04/09 08:20:51;;;;;;;;;;;20.90;60.90;;;;;;5403267;26;19998;-74
2024/04/09 08:23:26;;;;;;;;;;;21.00;60.90;;;;;;5403642;26;19929;-74
2024/04/09 08:26:01;;;;;;;;;;;21.00;60.90;;;;;;5403395;26;19929;-73
2024/04/09 08:28:33;;;;;;;;;;;21.10;61.10;;;;;;5405061;26;19936;-74
2024/04/09 08:31:11;;;;;;;;;;;21.10;61.20;;;;;;5408039;26;19998;-76
2024/04/09 08:33:50;;;;;;;;;;;21.10;61.20;;;;;;5440626;26;20033;-75
2024/04/09 08:36:27;;;;;;;;;;;21.10;61.40;;;;;;5435370;26;19937;-74
2024/04/09 08:39:04;;;;;;;;;;;21.10;61.40;;;;;;5444352;26;19929;-75
2024/04/09 08:41:39;;;;;;;;;;;21.20;61.20;;;;;;5438540;26;19935;-74
2024/04/09 08:44:13;;;;;;;;;;;21.30;60.90;;;;;;5435700;26;19929;-74
2024/04/09 08:46:56;;;;;;;;;;;21.30;61.20;;;;;;5434480;26;19941;-75
2024/04/09 08:49:29;;;;;;;;;;;21.30;61.20;;;;;;5440210;26;19928;-76
2024/04/09 08:52:06;;;;;;;;;;;21.20;61.00;;;;;;5439333;26;19929;-75
2024/04/09 08:54:41;;;;;;;;;;;21.20;61.00;;;;;;5423347;26;19952;-75
2024/04/09 08:57:16;;;;;;;;;;;21.20;61.20;;;;;;5437471;26;19929;-74
2024/04/09 08:59:48;;;;;;;;;;;21.10;61.60;;;;;;5438380;26;20628;-74
2024/04/09 09:02:24;;;;;;;;;;;21.00;61.90;;;;;;5437991;26;19997;-62
2024/04/09 09:04:56;;;;;;;;;;;20.90;62.40;;;;;;5439607;26;19929;-62
2024/04/09 09:07:32;;;;;;;;;;;20.80;62.60;;;;;;5437812;26;19928;-62
2024/04/09 09:10:09;;;;;;;;;;;20.80;62.70;;;;;;5439393;26;19944;-67
2024/04/09 09:12:50;;;;;;;;;;;20.80;63.10;;;;;;5432256;26;19932;-62
2024/04/09 09:15:22;;;;;;;;;;;20.80;63.30;;;;;;5437986;26;19933;-62
2024/04/09 09:17:58;;;;;;;;;;;20.90;63.40;;;;;;5442405;26;19929;-62
2024/04/09 09:20:37;;;;;;;;;;;21.10;63.00;;;;;;5438374;26;19929;-62
2024/04/09 09:23:20;;;;;;;;;;;21.10;62.50;;;;;;5445491;26;19940;-62
2024/04/09 09:25:56;;;;;;;;;;;21.10;62.30;;;;;;5443606;26;19928;-62
2024/04/09 09:28:32;;;;;;;;;;;20.90;62.40;;;;;;5440125;26;19997;-63
2024/04/09 09:31:04;;;;;;;;;;;20.90;62.50;;;;;;5441079;26;19932;-63
2024/04/09 09:33:45;;;;;;;;;;;21.10;61.90;;;;;;5403291;26;19941;-62
2024/04/09 09:36:18;;;;;;;;;;;21.10;60.90;;;;;;5403875;26;19936;-62
2024/04/09 09:38:53;;;;;;;;;;;21.00;61.10;;;;;;5406458;26;20972;-62
2024/04/09 09:41:31;;;;;;;;;;;20.80;61.00;;;;;;5402514;26;19929;-62
2024/04/09 09:44:07;;;;;;;;;;;20.60;61.20;;;;;;5406546;26;19929;-62
2024/04/09 09:46:41;;;;;;;;;;;20.40;61.80;;;;;;5421725;26;19932;-62
2024/04/09 09:49:17;;;;;;;;;;;20.30;61.60;;;;;;5442790;26;20328;-62
2024/04/09 09:51:50;;;;;;;;;;;20.10;61.40;;;;;;5439036;26;19945;-62
2024/04/09 09:54:18;;;;;;;;;;;20.10;61.30;;;;;;5439805;26;19944;-62
2024/04/09 09:56:56;;;;;;;;;;;19.90;60.70;;;;;;5441788;26;19929;-62
2024/04/09 09:59:33;;;;;;;;;;;19.70;60.80;;;;;;5440974;26;19944;-62
2024/04/09 10:02:06;;;;;;;;;;;19.50;61.20;;;;;;5442323;26;20015;-62
2024/04/09 10:04:48;;;;;;;;;;;19.30;60.10;;;;;;5440937;26;20307;-62
2024/04/09 10:07:21;;;;;;;;;;;19.00;60.10;;;;;;5443809;26;19928;-62
2024/04/09 10:09:58;;;;;;;;;;;18.90;59.80;;;;;;5443060;26;20007;-61
2024/04/09 10:12:34;;;;;;;;;;;18.80;59.70;;;;;;5444103;26;19935;-72
2024/04/09 10:15:11;;;;;;;;;;;18.60;59.00;;;;;;5442113;26;19935;-71
2024/04/09 10:17:47;;;;;;;;;;;18.60;58.40;;;;;;5444373;26;20336;-72
2024/04/09 10:20:23;;;;;;;;;;;18.40;57.80;;;;;;5445677;26;19929;-72
2024/04/09 10:23:03;;;;;;;;;;;18.30;58.10;;;;;;5440518;26;19936;-72
2024/04/09 10:25:39;;;;;;;;;;;18.30;58.10;;;;;;5442593;26;19936;-72
2024/04/09 10:28:26;;;;;;;;;;;18.30;57.80;;;;;;5443140;26;19940;-72
2024/04/09 10:31:06;;;;;;;;;;;18.40;57.30;;;;;;5440158;26;19928;-70
2024/04/09 10:33:39;;;;;;;;;;;18.50;56.80;;;;;;5403760;26;19965;-71
2024/04/09 10:36:14;;;;;;;;;;;18.50;57.10;;;;;;5408975;26;19936;-72
2024/04/09 10:38:49;;;;;;;;;;;18.50;56.90;;;;;;5409633;26;20367;-72
2024/04/09 10:41:21;;;;;;;;;;;18.50;56.90;;;;;;5405256;26;19929;-72
2024/04/09 10:44:00;;;;;;;;;;;18.40;57.30;;;;;;5404901;26;19937;-72
2024/04/09 10:46:32;;;;;;;;;;;18.50;57.60;;;;;;5438125;26;20334;-72
2024/04/09 10:49:15;;;;;;;;;;;18.40;57.30;;;;;;5437323;26;19948;-72
2024/04/09 10:51:48;;;;;;;;;;;18.30;57.60;;;;;;5402266;26;19936;-72
2024/04/09 10:54:23;;;;;;;;;;;18.20;57.50;;;;;;5405845;26;19941;-72
2024/04/09 10:56:59;;;;;;;;;;;18.20;56.60;;;;;;5402196;26;19933;-73
2024/04/09 10:59:37;;;;;;;;;;;18.20;56.20;;;;;;5406921;26;19935;-72
2024/04/09 11:02:10;;;;;;;;;;;18.20;56.10;;;;;;5402976;26;19929;-72
2024/04/09 11:04:39;;;;;;;;;;;18.30;56.40;;;;;;5408333;26;19936;-72
2024/04/09 11:07:12;;;;;;;;;;;18.30;55.50;;;;;;5432203;26;19928;-72
2024/04/09 11:09:47;;;;;;;;;;;18.30;55.70;;;;;;5444453;26;19997;-72
2024/04/09 11:12:20;;;;;;;;;;;18.20;55.40;;;;;;5446021;26;20267;-72
2024/04/09 11:15:05;;;;;;;;;;;18.10;54.60;;;;;;5442303;26;19928;-72
2024/04/09 11:17:38;;;;;;;;;;;18.10;55.00;;;;;;5439943;26;19936;-72
2024/04/09 11:20:15;;;;;;;;;;;18.10;54.70;;;;;;5443403;26;19940;-73
2024/04/09 11:22:49;;;;;;;;;;;18.10;54.40;;;;;;5440845;26;19928;-63
2024/04/09 11:25:24;;;;;;;;;;;18.00;54.50;;;;;;5441288;26;19936;-63
2024/04/09 11:27:56;;;;;;;;;;;17.90;54.40;;;;;;5446315;26;19944;-62
2024/04/09 11:30:42;;;;;;;;;;;17.90;54.00;;;;;;5443424;26;19928;-61
2024/04/09 11:33:15;;;;;;;;;;;17.90;54.60;;;;;;5440692;26;19943;-63
2024/04/09 11:35:57;;;;;;;;;;;17.90;55.10;;;;;;5444793;26;19984;-61
2024/04/09 11:38:29;;;;;;;;;;;18.00;54.80;;;;;;5446454;26;20317;-61
2024/04/09 11:41:05;;;;;;;;;;;17.90;55.00;;;;;;5441960;26;19934;-62
2024/04/09 11:43:38;;;;;;;;;;;17.90;54.50;;;;;;5446005;26;19928;-64
2024/04/09 11:46:16;;;;;;;;;;;18.10;54.80;;;;;;5439873;26;19980;-61
2024/04/09 11:48:48;;;;;;;;;;;18.20;54.60;;;;;;5441276;26;21054;-62
2024/04/09 11:51:25;;;;;;;;;;;18.20;54.50;;;;;;5436272;26;19936;-62
2024/04/09 11:53:58;;;;;;;;;;;18.20;54.20;;;;;;5441303;26;19929;-64
2024/04/09 11:56:35;;;;;;;;;;;18.20;54.10;;;;;;5402097;26;19938;-63
2024/04/09 11:59:07;;;;;;;;;;;18.20;53.50;;;;;;5405189;26;19936;-63
2024/04/09 12:01:46;;;;;;;;;;;18.10;53.60;;;;;;5400393;26;20376;-63
2024/04/09 12:04:20;;;;;;;;;;;18.10;52.90;;;;;;5405568;26;20679;-62
2024/04/09 12:06:55;;;;;;;;;;;18.00;52.20;;;;;;5405703;26;19937;-63
2024/04/09 12:09:27;;;;;;;;;;;17.90;53.00;;;;;;5403247;26;20135;-62
2024/04/09 12:12:03;;;;;;;;;;;17.80;52.50;;;;;;5404752;26;19929;-61
2024/04/09 12:14:35;;;;;;;;;;;17.70;52.20;;;;;;5407014;26;19941;-62
2024/04/09 12:17:14;;;;;;;;;;;17.70;52.40;;;;;;5402688;26;19929;-62
2024/04/09 12:19:47;;;;;;;;;;;17.60;52.90;;;;;;5401985;26;19929;-63
2024/04/09 12:22:22;;;;;;;;;;;17.50;53.20;;;;;;5435823;26;19929;-61
2024/04/09 12:24:56;;;;;;;;;;;17.50;52.60;;;;;;5441783;26;19928;-63
2024/04/09 12:27:33;;;;;;;;;;;17.40;53.10;;;;;;5440398;26;19944;-62
2024/04/09 12:30:08;;;;;;;;;;;17.30;53.60;;;;;;5447113;26;19936;-62
2024/04/09 12:32:40;;;;;;;;;;;17.20;53.60;;;;;;5403972;26;20269;-75
2024/04/09 12:35:21;;;;;;;;;;;17.10;53.90;;;;;;5403277;26;19929;-74
2024/04/09 12:37:56;;;;;;;;;;;17.10;54.30;;;;;;5416117;26;19992;-74
2024/04/09 12:40:29;;;;;;;;;;;16.90;54.80;;;;;;5402766;26;19949;-74
2024/04/09 12:42:57;;;;;;;;;;;16.90;54.80;;;;;;5405893;26;19965;-74
2024/04/09 12:45:30;;;;;;;;;;;16.90;54.80;;;;;;5405309;26;19938;-74
2024/04/09 12:48:08;;;;;;;;;;;16.70;55.00;;;;;;5407873;26;19965;-75
2024/04/09 12:50:40;;;;;;;;;;;16.60;55.10;;;;;;5405846;26;19960;-74
2024/04/09 12:53:16;;;;;;;;;;;16.50;55.20;;;;;;5395764;26;19929;-75
2024/04/09 12:55:48;;;;;;;;;;;16.40;55.50;;;;;;5400299;26;19997;-74
2024/04/09 12:58:24;;;;;;;;;;;16.40;55.40;;;;;;5399863;26;19929;-72
2024/04/09 13:00:56;;;;;;;;;;;16.40;55.60;;;;;;5402353;26;20023;-72
2024/04/09 13:03:56;;;;;;;;;;;16.30;55.70;;;;;;5405004;26;25574;-72
2024/04/09 13:17:17;;;;;;;;;;;16.10;55.90;;;;;;5403503;26;19947;-74
2024/04/09 13:19:52;;;;;;;;;;;15.90;56.50;;;;;;5401249;26;19929;-74
2024/04/09 13:22:28;;;;;;;;;;;16.00;56.40;;;;;;5408160;26;20437;-74
2024/04/09 13:25:01;;;;;;;;;;;16.00;56.70;;;;;;5399367;26;19929;-74
2024/04/09 13:27:36;;;;;;;;;;;15.90;56.80;;;;;;5425060;26;19999;-72
2024/04/09 13:30:09;;;;;;;;;;;15.80;56.90;;;;;;5440464;26;19936;-73
2024/04/09 13:36:05;;;;;;;;;;;15.60;57.20;;;;;;5399355;26;19934;-72
2024/04/09 13:38:38;;;;;;;;;;;15.60;57.40;;;;;;5405256;26;19968;-75
2024/04/09 13:41:13;;;;;;;;;;;15.60;57.40;;;;;;5401365;26;19957;-63
2024/04/09 13:43:53;;;;;;;;;;;15.50;57.80;;;;;;5400256;26;19929;-62
2024/04/09 13:46:28;;;;;;;;;;;15.40;58.20;;;;;;5398568;26;19933;-62
2024/04/09 13:49:00;;;;;;;;;;;15.50;57.80;;;;;;5407369;26;20027;-62
2024/04/09 13:51:39;;;;;;;;;;;15.40;58.30;;;;;;5403331;26;19933;-63
2024/04/09 13:54:12;;;;;;;;;;;15.30;58.40;;;;;;5434909;26;19928;-63
2024/04/09 13:56:47;;;;;;;;;;;15.30;58.30;;;;;;5438872;26;19928;-62
2024/04/09 13:59:20;;;;;;;;;;;15.40;58.40;;;;;;5437252;26;20592;-62
2024/04/09 14:01:56;;;;;;;;;;;15.40;58.60;;;;;;5434146;26;20554;-61
2024/04/09 14:04:29;;;;;;;;;;;15.40;58.90;;;;;;5444043;26;19940;-62
2024/04/09 14:07:07;;;;;;;;;;;15.40;59.10;;;;;;5436127;26;19993;-63
2024/04/09 14:09:47;;;;;;;;;;;15.40;59.20;;;;;;5419146;26;19935;-62
2024/04/09 14:12:24;;;;;;;;;;;15.40;59.70;;;;;;5443408;26;19953;-67
2024/04/09 14:14:57;;;;;;;;;;;15.40;60.00;;;;;;5445375;26;19936;-62
2024/04/09 14:17:34;;;;;;;;;;;15.30;60.00;;;;;;5415595;26;19998;-62
2024/04/09 14:20:08;;;;;;;;;;;15.30;60.10;;;;;;5425742;26;19935;-62
2024/04/09 14:22:46;;;;;;;;;;;15.20;60.40;;;;;;5445638;26;19928;-62
2024/04/09 14:25:19;;;;;;;;;;;15.10;60.60;;;;;;5444556;26;19936;-62
2024/04/09 14:27:54;;;;;;;;;;;15.10;60.90;;;;;;5446195;26;20399;-62
2024/04/09 14:30:27;;;;;;;;;;;15.00;61.50;;;;;;5448910;26;19935;-63
2024/04/09 14:33:04;;;;;;;;;;;15.00;61.20;;;;;;5446444;26;19935;-62
2024/04/09 14:35:37;;;;;;;;;;;15.00;61.30;;;;;;5444325;26;19936;-62
2024/04/09 14:38:15;;;;;;;;;;;14.90;61.70;;;;;;5448803;26;19928;-63
2024/04/09 14:40:49;;;;;;;;;;;15.00;61.70;;;;;;5446165;26;20428;-62
2024/04/09 14:43:24;;;;;;;;;;;15.00;61.60;;;;;;5442259;26;19929;-63
2024/04/09 14:45:58;;;;;;;;;;;14.90;61.70;;;;;;5437633;26;19933;-67
2024/04/09 14:48:34;;;;;;;;;;;14.90;62.00;;;;;;5444286;26;19929;-63
2024/04/09 14:51:08;;;;;;;;;;;14.90;62.00;;;;;;5440849;26;19940;-67
2024/04/09 14:53:46;;;;;;;;;;;14.90;62.00;;;;;;5404895;26;19936;-66
2024/04/09 14:56:44;;;;;;;;;;;14.90;62.10;;;;;;5403599;26;20004;-67
2024/04/09 14:59:47;;;;;;;;;;;14.80;62.30;;;;;;5402474;26;19965;-65
2024/04/09 15:02:25;;;;;;;;;;;14.80;62.50;;;;;;5399931;26;19929;-67
2024/04/09 15:05:00;;;;;;;;;;;14.80;62.60;;;;;;5405908;26;20367;-67
2024/04/09 15:07:34;;;;;;;;;;;14.80;62.50;;;;;;5401054;26;19929;-66
2024/04/09 15:10:18;;;;;;;;;;;14.70;62.60;;;;;;5408491;26;19957;-67
2024/04/09 15:12:50;;;;;;;;;;;14.70;62.80;;;;;;5409522;26;19929;-66
2024/04/09 15:15:25;;;;;;;;;;;14.70;62.60;;;;;;5408240;26;19937;-67
2024/04/09 15:17:58;;;;;;;;;;;14.70;62.60;;;;;;5421600;26;20068;-66